Time;durP1;ratioP1;P1;durP2;ratioP2;P2;SDS_P1;SDS_P2;PMS_P1;PMS_P2;Temp;Humidity;BMP_temperature;BMP_pressure;BME280_temperature;BME280_humidity;BME280_pressure;Samples;Min_cycle;Max_cycle;Signal;HPM_P1;HPM_P2
2024/01/29 00:02:08;;;;;;;15.88;14.02;;;;;;;19.83;44.05;103205.69;5024447;28;20046;-57
2024/01/29 00:04:35;;;;;;;16.08;13.95;;;;;;;19.84;43.91;103210.97;5016214;28;20050;-58
2024/01/29 00:07:04;;;;;;;16.25;13.70;;;;;;;19.82;43.92;103202.13;5018588;28;20054;-57
2024/01/29 00:09:31;;;;;;;18.45;15.00;;;;;;;19.82;43.82;103198.56;5028434;28;20395;-59
2024/01/29 00:11:59;;;;;;;16.30;13.55;;;;;;;19.81;43.67;103202.19;5015996;28;20057;-58
2024/01/29 00:14:26;;;;;;;18.23;13.73;;;;;;;19.80;43.70;103197.75;5016135;28;20041;-58
2024/01/29 00:16:54;;;;;;;17.50;14.10;;;;;;;19.80;43.61;103211.19;5016302;28;20045;-58
2024/01/29 00:19:21;;;;;;;16.52;12.98;;;;;;;19.79;43.46;103213.03;5016043;28;20423;-58
2024/01/29 00:21:50;;;;;;;20.70;14.30;;;;;;;19.79;43.41;103209.47;5016037;28;20053;-58
2024/01/29 00:24:17;;;;;;;17.17;13.88;;;;;;;19.78;43.54;103205.03;5016343;28;20065;-58
2024/01/29 00:26:45;;;;;;;20.23;14.77;;;;;;;19.78;43.37;103205.03;5017414;28;20523;-59
2024/01/29 00:29:12;;;;;;;17.92;13.73;;;;;;;19.78;43.18;103210.41;5027140;28;20403;-59
2024/01/29 00:31:39;;;;;;;16.15;12.77;;;;;;;19.77;43.31;103209.56;5016328;28;20052;-59
2024/01/29 00:34:06;;;;;;;17.58;14.70;;;;;;;19.75;42.96;103204.25;5015665;28;20104;-59
2024/01/29 00:36:34;;;;;;;16.58;13.02;;;;;;;19.75;42.96;103206.91;5015893;28;20045;-58
2024/01/29 00:39:06;;;;;;;16.67;13.32;;;;;;;19.75;42.99;103204.25;5015948;28;20046;-58
2024/01/29 00:41:34;;;;;;;17.38;14.27;;;;;;;19.73;42.99;103206.16;5014094;28;20053;-59
2024/01/29 00:44:02;;;;;;;16.27;13.57;;;;;;;19.73;42.99;103198.09;5015550;28;20515;-59
2024/01/29 00:46:29;;;;;;;18.15;13.60;;;;;;;19.73;43.08;103200.78;5028635;28;20053;-59
2024/01/29 00:48:56;;;;;;;17.58;13.57;;;;;;;19.73;43.01;103208.84;5015402;28;20046;-58
2024/01/29 00:51:24;;;;;;;16.98;14.30;;;;;;;19.72;42.89;103204.38;5015222;28;20065;-58
2024/01/29 00:53:51;;;;;;;16.60;12.98;;;;;;;19.72;42.93;103203.50;5016079;28;20046;-58
2024/01/29 00:56:19;;;;;;;17.27;13.52;;;;;;;19.71;42.82;103202.66;5012599;28;20034;-58
2024/01/29 00:58:46;;;;;;;16.52;13.35;;;;;;;19.72;42.67;103206.19;5021133;28;20068;-57
2024/01/29 01:01:13;;;;;;;17.17;13.82;;;;;;;19.70;42.68;103203.59;5023301;28;20046;-57
2024/01/29 01:03:41;;;;;;;16.88;14.02;;;;;;;19.70;42.62;103208.97;5029114;28;20045;-57
2024/01/29 01:06:10;;;;;;;18.90;15.05;;;;;;;19.70;42.78;103208.13;5017019;28;20049;-57
2024/01/29 01:08:37;;;;;;;16.85;13.18;;;;;;;19.69;42.49;103207.25;5026754;28;20050;-58
2024/01/29 01:11:07;;;;;;;15.85;12.80;;;;;;;19.69;42.62;103209.94;5024785;28;20045;-58
2024/01/29 01:13:34;;;;;;;14.23;12.60;;;;;;;19.68;42.40;103210.84;5018046;28;20046;-58
2024/01/29 01:16:02;;;;;;;16.13;13.15;;;;;;;19.67;42.49;103208.25;5030178;28;20052;-59
2024/01/29 01:18:29;;;;;;;16.60;13.85;;;;;;;19.66;42.43;103215.44;5021156;28;20056;-58
2024/01/29 01:20:56;;;;;;;16.70;13.40;;;;;;;19.67;42.50;103206.44;5021966;28;20496;-58
2024/01/29 01:23:25;;;;;;;15.48;13.13;;;;;;;19.66;42.43;103211.91;5029226;28;20049;-58
2024/01/29 01:25:53;;;;;;;15.15;12.55;;;;;;;19.65;42.47;103210.16;5017643;28;20053;-58
2024/01/29 01:28:20;;;;;;;14.13;12.68;;;;;;;19.66;42.32;103217.28;5025438;28;20046;-58
2024/01/29 01:30:47;;;;;;;14.70;12.18;;;;;;;19.64;42.32;103211.97;5025221;28;20057;-58
2024/01/29 01:33:15;;;;;;;14.57;11.98;;;;;;;19.63;42.26;103210.22;5030845;28;20050;-58
2024/01/29 01:35:42;;;;;;;15.35;12.77;;;;;;;19.65;42.27;103215.53;5017564;28;20480;-58
2024/01/29 01:38:09;;;;;;;13.20;11.55;;;;;;;19.63;42.21;103210.22;5025822;28;20065;-57
2024/01/29 01:40:37;;;;;;;15.75;12.20;;;;;;;19.63;42.25;103215.59;5014973;28;20042;-58
2024/01/29 01:43:17;;;;;;;14.43;11.98;;;;;;;19.63;42.04;103218.28;5014651;28;20041;-58
2024/01/29 01:45:44;;;;;;;16.50;12.95;;;;;;;19.63;42.09;103212.03;5017816;28;20049;-58
2024/01/29 01:48:12;;;;;;;15.00;13.23;;;;;;;19.63;42.04;103212.03;5024391;28;20396;-59
2024/01/29 01:50:40;;;;;;;14.52;12.00;;;;;;;19.63;41.94;103202.16;5014271;28;20046;-58
2024/01/29 01:53:07;;;;;;;15.75;12.20;;;;;;;19.63;42.07;103199.47;5016246;28;20042;-58
2024/01/29 01:55:35;;;;;;;14.70;12.00;;;;;;;19.63;41.94;103201.28;5012661;28;20034;-59
2024/01/29 01:58:05;;;;;;;14.25;12.25;;;;;;;19.61;41.93;103198.69;5013180;28;20053;-58
2024/01/29 02:00:33;;;;;;;15.75;12.27;;;;;;;19.62;41.87;103202.25;5017620;28;20050;-59
2024/01/29 02:03:00;;;;;;;15.50;13.02;;;;;;;19.62;42.07;103205.81;5017716;28;20065;-59
2024/01/29 02:05:28;;;;;;;14.02;12.20;;;;;;;19.61;41.89;103200.47;5018043;28;20046;-59
2024/01/29 02:07:56;;;;;;;15.35;13.55;;;;;;;19.62;41.70;103200.44;5024972;28;20049;-57
2024/01/29 02:10:23;;;;;;;14.57;11.98;;;;;;;19.61;41.77;103196.00;5033970;28;20057;-58
2024/01/29 02:12:52;;;;;;;14.98;11.85;;;;;;;19.62;41.79;103203.13;5021031;28;20050;-57
2024/01/29 02:15:20;;;;;;;13.50;11.88;;;;;;;19.62;41.68;103196.88;5031253;28;20057;-57
2024/01/29 02:17:47;;;;;;;14.75;12.07;;;;;;;19.61;41.72;103193.31;5026479;28;20045;-57
2024/01/29 02:20:17;;;;;;;14.50;12.05;;;;;;;19.61;41.57;103198.69;5022575;28;20407;-57
2024/01/29 02:22:44;;;;;;;14.80;12.18;;;;;;;19.61;41.69;103198.69;5033666;28;20053;-57
2024/01/29 02:25:15;;;;;;;13.90;11.63;;;;;;;19.61;41.63;103200.47;5022085;28;20363;-57
2024/01/29 02:27:42;;;;;;;13.65;11.80;;;;;;;19.61;41.62;103190.63;5027335;28;20045;-58
2024/01/29 02:30:11;;;;;;;14.35;12.00;;;;;;;19.60;41.66;103194.22;5021885;28;20058;-58
2024/01/29 02:32:38;;;;;;;13.90;12.40;;;;;;;19.60;41.68;103201.41;5032806;28;20052;-58
2024/01/29 02:35:06;;;;;;;13.98;11.90;;;;;;;19.60;41.55;103190.66;5022666;28;20045;-58
2024/01/29 02:37:34;;;;;;;14.55;12.18;;;;;;;19.60;41.69;103190.66;5025555;28;20525;-57
2024/01/29 02:40:06;;;;;;;14.68;12.13;;;;;;;19.59;41.67;103184.41;5031457;28;20056;-57
2024/01/29 02:42:34;;;;;;;14.90;11.88;;;;;;;19.59;41.45;103192.47;5019863;28;20094;-57
2024/01/29 02:45:03;;;;;;;12.90;10.52;;;;;;;19.57;41.54;103191.69;5029120;28;20436;-57
2024/01/29 02:47:30;;;;;;;12.95;11.35;;;;;;;19.58;41.46;103192.56;5027683;28;20049;-58
2024/01/29 02:49:57;;;;;;;13.73;11.55;;;;;;;19.58;41.67;103189.88;5020536;28;20385;-57
2024/01/29 02:52:25;;;;;;;11.85;10.40;;;;;;;19.58;41.37;103190.75;5032260;28;20064;-57
2024/01/29 02:54:52;;;;;;;13.50;12.10;;;;;;;19.57;41.58;103189.00;5023578;28;20042;-57
2024/01/29 02:57:23;;;;;;;13.45;11.20;;;;;;;19.57;41.39;103186.31;5022810;28;20044;-58
2024/01/29 02:59:51;;;;;;;14.60;11.82;;;;;;;19.57;41.52;103188.13;5015859;28;20057;-58
2024/01/29 03:02:19;;;;;;;12.63;11.18;;;;;;;19.57;41.46;103186.31;5031453;28;20046;-58
2024/01/29 03:04:47;;;;;;;13.35;11.57;;;;;;;19.56;41.61;103181.88;5023838;28;20053;-58
2024/01/29 03:07:14;;;;;;;13.38;11.85;;;;;;;19.56;41.30;103191.75;5023739;28;20057;-58
2024/01/29 03:09:42;;;;;;;13.05;10.95;;;;;;;19.56;41.41;103189.94;5030718;28;20519;-57
2024/01/29 03:12:09;;;;;;;11.98;10.38;;;;;;;19.56;41.55;103179.19;5019951;28;20051;-57
2024/01/29 03:14:37;;;;;;;13.18;11.77;;;;;;;19.56;41.40;103173.81;5027242;28;20042;-58
2024/01/29 03:17:05;;;;;;;13.07;10.95;;;;;;;19.56;41.32;103172.94;5027536;28;20042;-58
2024/01/29 03:19:33;;;;;;;13.00;11.60;;;;;;;19.54;41.37;103170.34;5019931;28;20046;-58
2024/01/29 03:22:00;;;;;;;12.48;10.77;;;;;;;19.54;41.27;103169.47;5019431;28;20048;-58
2024/01/29 03:24:28;;;;;;;13.55;11.68;;;;;;;19.53;41.22;103168.63;5026889;28;20057;-58
2024/01/29 03:26:55;;;;;;;14.57;11.73;;;;;;;19.53;41.04;103165.94;5017916;28;20061;-58
2024/01/29 03:29:23;;;;;;;13.48;11.50;;;;;;;19.52;40.99;103170.41;5031379;28;20048;-59
2024/01/29 03:31:51;;;;;;;14.05;11.18;;;;;;;19.52;41.16;103173.09;5033978;28;20144;-59
2024/01/29 03:34:18;;;;;;;12.45;10.43;;;;;;;19.52;40.89;103167.72;5026866;28;20046;-57
2024/01/29 03:36:46;;;;;;;13.32;10.88;;;;;;;19.52;41.07;103158.78;5027314;28;20056;-57
2024/01/29 03:39:13;;;;;;;14.30;12.20;;;;;;;19.51;40.94;103160.63;5019622;28;20050;-57
2024/01/29 03:41:41;;;;;;;13.88;11.90;;;;;;;19.51;40.84;103159.75;5030346;28;20408;-57
2024/01/29 03:44:08;;;;;;;12.88;10.45;;;;;;;19.51;40.96;103157.94;5015838;28;20050;-57
2024/01/29 03:46:35;;;;;;;12.88;10.95;;;;;;;19.51;41.12;103154.38;5015889;28;20046;-57
2024/01/29 03:49:03;;;;;;;11.95;10.18;;;;;;;19.51;40.80;103157.06;5016005;28;20484;-57
2024/01/29 03:51:30;;;;;;;12.50;10.85;;;;;;;19.50;40.95;103158.03;5030296;28;20054;-57
2024/01/29 03:53:58;;;;;;;14.20;11.20;;;;;;;19.50;40.92;103155.34;5015615;28;20052;-57
2024/01/29 03:56:25;;;;;;;12.75;11.23;;;;;;;19.49;40.89;103157.16;5015539;28;20053;-57
2024/01/29 03:58:52;;;;;;;12.48;10.88;;;;;;;19.48;40.72;103152.69;5012544;28;20056;-58
2024/01/29 04:01:27;;;;;;;12.25;10.80;;;;;;;19.49;40.85;103149.09;5030527;28;20502;-58
2024/01/29 04:03:55;;;;;;;15.38;12.48;;;;;;;19.50;41.00;103141.91;5023319;28;20052;-59
2024/01/29 04:06:23;;;;;;;12.82;11.25;;;;;;;19.47;40.76;103137.53;5021020;28;20050;-58
2024/01/29 04:08:51;;;;;;;15.20;11.95;;;;;;;19.47;40.79;103142.03;5030669;28;20050;-57
2024/01/29 04:11:18;;;;;;;13.38;10.75;;;;;;;19.48;40.67;103138.41;5029245;28;20042;-57
2024/01/29 04:13:46;;;;;;;12.88;11.38;;;;;;;19.48;40.80;103141.09;5023070;28;20049;-57
2024/01/29 04:16:13;;;;;;;13.57;11.60;;;;;;;19.47;40.71;103142.91;5027845;28;20506;-57
2024/01/29 04:18:40;;;;;;;15.40;12.13;;;;;;;19.46;40.33;103145.69;5017706;28;20049;-57
2024/01/29 04:21:08;;;;;;;13.07;11.70;;;;;;;19.47;40.63;103142.03;5028704;28;20053;-57
2024/01/29 04:23:35;;;;;;;14.35;12.18;;;;;;;19.46;40.57;103141.19;5022530;28;20507;-57
2024/01/29 04:26:03;;;;;;;12.35;11.10;;;;;;;19.46;40.47;103151.06;5020398;28;20041;-57
2024/01/29 04:28:30;;;;;;;12.90;10.88;;;;;;;19.45;40.57;103138.59;5030170;28;20053;-57
2024/01/29 04:30:57;;;;;;;12.48;10.98;;;;;;;19.44;40.67;103145.75;5018779;28;20053;-57
2024/01/29 04:33:30;;;;;;;;;;;;;;;19.42;40.66;103144.97;5024204;28;20049;-57
2024/01/29 04:35:58;;;;;;;13.95;12.23;;;;;;;19.43;40.37;103152.06;5027320;28;19932;-57
2024/01/29 04:38:25;;;;;;;13.38;11.98;;;;;;;19.43;40.41;103149.38;5022450;28;20042;-57
2024/01/29 04:40:53;;;;;;;13.63;12.15;;;;;;;19.42;40.37;103158.41;5028014;28;20046;-57
2024/01/29 04:43:20;;;;;;;13.45;12.02;;;;;;;19.41;40.29;103148.59;5023097;28;20045;-57
2024/01/29 04:45:47;;;;;;;12.50;10.88;;;;;;;19.41;40.07;103153.13;5020108;28;20400;-57
2024/01/29 04:48:15;;;;;;;12.57;11.13;;;;;;;19.40;40.18;103156.72;5029610;28;20531;-57
2024/01/29 04:50:42;;;;;;;13.57;12.18;;;;;;;19.39;40.09;103163.03;5019407;28;20053;-57
2024/01/29 04:53:10;;;;;;;12.80;11.50;;;;;;;19.39;40.07;103168.41;5023813;28;20049;-58
2024/01/29 04:55:37;;;;;;;12.88;10.98;;;;;;;19.40;40.10;103162.97;5027001;28;20042;-58
2024/01/29 04:58:04;;;;;;;11.90;10.68;;;;;;;19.40;40.16;103156.72;5015697;28;20433;-58
2024/01/29 05:00:32;;;;;;;12.52;11.23;;;;;;;19.40;40.07;103164.78;5012585;28;20041;-58
2024/01/29 05:02:59;;;;;;;12.73;11.30;;;;;;;19.40;40.02;103165.66;5022744;28;20053;-58
2024/01/29 05:05:26;;;;;;;13.35;11.93;;;;;;;19.39;40.08;103160.34;5021584;28;20033;-58
2024/01/29 05:07:54;;;;;;;13.10;11.15;;;;;;;19.39;39.92;103165.72;5016910;28;20057;-58
2024/01/29 05:10:21;;;;;;;12.57;10.55;;;;;;;19.39;40.21;103165.72;5027530;28;20049;-59
2024/01/29 05:12:49;;;;;;;11.85;10.27;;;;;;;19.39;40.23;103174.66;5011762;28;20053;-59
2024/01/29 05:15:17;;;;;;;13.13;11.70;;;;;;;19.39;40.23;103177.34;5013350;28;20038;-59
2024/01/29 05:17:45;;;;;;;12.23;10.63;;;;;;;19.40;39.95;103180.91;5029193;28;20046;-59
2024/01/29 05:20:12;;;;;;;13.10;11.07;;;;;;;19.39;40.26;103182.72;5013505;28;20411;-59
2024/01/29 05:22:42;;;;;;;13.70;11.20;;;;;;;19.37;40.08;103184.63;5013643;28;20049;-59
2024/01/29 05:25:09;;;;;;;14.05;11.32;;;;;;;19.38;40.21;103175.59;5013117;28;20057;-59
2024/01/29 05:27:37;;;;;;;11.73;10.20;;;;;;;19.37;39.96;103178.38;5029438;28;20060;-59
2024/01/29 05:30:05;;;;;;;11.55;10.27;;;;;;;19.37;40.19;103179.25;5013661;28;20061;-59
2024/01/29 05:32:33;;;;;;;12.68;10.85;;;;;;;19.37;40.01;103176.56;5014695;28;20050;-60
2024/01/29 05:35:01;;;;;;;12.85;10.65;;;;;;;19.37;39.96;103183.75;5032490;28;20064;-60
2024/01/29 05:37:31;;;;;;;10.90;9.80;;;;;;;19.37;40.01;103191.81;5015121;28;20064;-60
2024/01/29 05:39:59;;;;;;;12.50;10.73;;;;;;;19.37;39.99;103186.44;5014057;28;20054;-60
2024/01/29 05:42:26;;;;;;;12.73;10.35;;;;;;;19.37;39.96;103197.19;5022925;28;20041;-60
2024/01/29 05:44:54;;;;;;;13.65;11.35;;;;;;;19.35;40.08;103191.88;5018429;28;20492;-60
2024/01/29 05:47:22;;;;;;;12.48;10.52;;;;;;;19.35;40.01;103191.88;5028944;28;20056;-59
2024/01/29 05:49:50;;;;;;;12.82;11.45;;;;;;;19.36;39.88;103192.72;5017544;28;20057;-59
2024/01/29 05:52:17;;;;;;;12.85;10.57;;;;;;;19.35;39.76;103191.00;5022217;28;20046;-59
2024/01/29 05:54:45;;;;;;;11.63;10.23;;;;;;;19.33;39.82;103183.03;5027224;28;20050;-59
2024/01/29 05:57:12;;;;;;;12.38;10.77;;;;;;;19.34;39.58;103194.63;5026734;28;20050;-59
2024/01/29 05:59:40;;;;;;;11.90;10.45;;;;;;;19.32;39.69;103189.31;5014653;28;20049;-59
2024/01/29 06:02:08;;;;;;;13.40;11.00;;;;;;;19.32;39.69;103192.00;5012598;28;20110;-59
2024/01/29 06:04:36;;;;;;;12.15;10.82;;;;;;;19.33;39.44;103187.53;5027547;28;20048;-59
2024/01/29 06:07:03;;;;;;;10.68;9.55;;;;;;;19.33;39.71;103192.91;5032051;28;20049;-59
2024/01/29 06:09:31;;;;;;;11.95;10.27;;;;;;;19.33;39.92;103201.84;5032278;28;20045;-58
2024/01/29 06:11:58;;;;;;;13.10;10.88;;;;;;;19.32;40.01;103197.38;5032161;28;20403;-58
2024/01/29 06:14:26;;;;;;;10.18;9.18;;;;;;;19.34;40.00;103197.31;5031983;28;20049;-58
2024/01/29 06:16:57;;;;;;;10.80;9.73;;;;;;;19.35;40.16;103191.88;5032068;28;20042;-58
2024/01/29 06:19:25;;;;;;;12.25;9.65;;;;;;;19.34;40.32;103186.59;5032114;28;20057;-59
2024/01/29 06:21:53;;;;;;;10.27;8.70;;;;;;;19.36;40.55;103188.22;5031900;28;20045;-58
2024/01/29 06:24:20;;;;;;;12.02;9.35;;;;;;;19.36;40.41;103182.00;5031764;28;20053;-58
2024/01/29 06:26:47;;;;;;;11.63;10.45;;;;;;;19.36;40.28;103193.59;5021828;28;20391;-58
2024/01/29 06:29:15;;;;;;;10.77;9.50;;;;;;;19.36;40.19;103195.41;5031842;28;20045;-60
2024/01/29 06:31:43;;;;;;;9.48;8.48;;;;;;;19.37;40.15;103181.94;5032676;28;20049;-61
2024/01/29 06:34:10;;;;;;;10.38;8.93;;;;;;;19.39;40.56;103192.59;5032193;28;20056;-59
2024/01/29 06:36:38;;;;;;;10.95;9.38;;;;;;;19.39;40.65;103200.66;5031853;28;20048;-59
2024/01/29 06:39:07;;;;;;;12.30;10.32;;;;;;;19.39;40.50;103195.28;5031825;28;20076;-58
2024/01/29 06:41:35;;;;;;;10.38;8.65;;;;;;;19.39;40.58;103195.28;5032433;28;20041;-58
2024/01/29 06:44:02;;;;;;;9.50;8.50;;;;;;;19.37;40.33;103200.75;5031918;28;20125;-58
2024/01/29 06:46:29;;;;;;;14.98;9.63;;;;;;;19.37;40.49;103197.19;5034462;28;20062;-58
2024/01/29 06:48:57;;;;;;;12.13;9.77;;;;;;;19.36;40.50;103196.28;5035832;28;20060;-59
2024/01/29 06:51:24;;;;;;;12.05;10.02;;;;;;;19.36;40.64;103203.47;5035151;28;20514;-59
2024/01/29 06:53:52;;;;;;;10.77;9.35;;;;;;;19.36;40.48;103203.47;5035296;28;20041;-59
2024/01/29 06:56:19;;;;;;;11.10;9.15;;;;;;;19.35;40.62;103204.44;5035401;28;20054;-59
2024/01/29 06:58:46;;;;;;;10.98;8.77;;;;;;;19.36;40.42;103206.16;5034689;28;20049;-60
2024/01/29 07:01:18;;;;;;;11.45;9.82;;;;;;;19.34;40.43;103203.56;5025547;28;20061;-59
2024/01/29 07:03:46;;;;;;;12.35;9.20;;;;;;;19.34;40.44;103205.38;5015798;28;20116;-59
2024/01/29 07:06:14;;;;;;;11.07;9.63;;;;;;;19.34;40.62;103200.00;5030902;28;20385;-59
2024/01/29 07:08:41;;;;;;;11.43;9.52;;;;;;;19.33;40.47;103204.53;5023692;28;20388;-57
2024/01/29 07:11:09;;;;;;;10.60;9.50;;;;;;;19.33;40.62;103206.34;5035171;28;20495;-58
2024/01/29 07:13:36;;;;;;;10.10;8.57;;;;;;;19.34;40.65;103200.00;5035350;28;20057;-57
2024/01/29 07:16:03;;;;;;;10.27;8.60;;;;;;;19.34;40.47;103200.00;5020505;28;20045;-58
2024/01/29 07:18:31;;;;;;;11.93;8.68;;;;;;;19.33;40.45;103199.16;5034552;28;20068;-59
2024/01/29 07:20:58;;;;;;;10.65;8.93;;;;;;;19.32;40.27;103193.81;5034601;28;20056;-59
2024/01/29 07:23:26;;;;;;;11.88;9.55;;;;;;;19.32;40.53;103199.19;5034342;28;20057;-59
2024/01/29 07:25:53;;;;;;;10.93;8.88;;;;;;;19.32;40.76;103202.75;5032207;28;20453;-59
2024/01/29 07:28:21;;;;;;;10.52;8.57;;;;;;;19.33;40.53;103204.53;5034354;28;20052;-57
2024/01/29 07:30:48;;;;;;;9.05;8.05;;;;;;;19.33;40.61;103209.03;5034341;28;20112;-58
2024/01/29 07:33:15;;;;;;;10.13;8.73;;;;;;;19.33;40.67;103207.19;5034071;28;20049;-57
2024/01/29 07:35:43;;;;;;;11.90;9.73;;;;;;;19.35;40.86;103207.13;5018481;28;20050;-57
2024/01/29 07:38:10;;;;;;;11.27;9.02;;;;;;;19.35;40.74;103205.28;5034246;28;20050;-59
2024/01/29 07:40:38;;;;;;;11.30;9.82;;;;;;;19.36;40.86;103206.16;5034891;28;20049;-59
2024/01/29 07:43:05;;;;;;;12.20;9.77;;;;;;;19.35;40.59;103210.66;5034690;28;20057;-58
2024/01/29 07:45:33;;;;;;;11.73;8.88;;;;;;;19.36;40.70;103209.72;5034527;28;20054;-58
2024/01/29 07:48:03;;;;;;;12.35;8.88;;;;;;;19.36;40.71;103215.09;5035000;28;20049;-58
2024/01/29 07:50:31;;;;;;;11.63;9.50;;;;;;;19.36;40.70;103211.53;5034825;28;20432;-59
2024/01/29 07:52:58;;;;;;;10.07;8.93;;;;;;;19.37;40.70;103205.25;5033961;28;20049;-59
2024/01/29 07:55:27;;;;;;;12.32;8.93;;;;;;;19.35;40.58;103210.66;5018623;28;20441;-58
2024/01/29 07:57:54;;;;;;;12.43;9.55;;;;;;;19.36;40.86;103219.59;5034740;28;20041;-58
2024/01/29 08:00:22;;;;;;;11.70;9.25;;;;;;;19.35;40.94;103216.03;5033939;28;20045;-58
2024/01/29 08:02:50;;;;;;;12.18;9.27;;;;;;;19.34;40.73;103210.75;5033571;28;20041;-59
2024/01/29 08:05:18;;;;;;;11.10;8.63;;;;;;;19.32;40.62;103212.63;5018782;28;20061;-58
2024/01/29 08:07:45;;;;;;;12.48;9.70;;;;;;;19.32;40.75;103207.25;5033810;28;20044;-57
2024/01/29 08:10:12;;;;;;;11.27;9.15;;;;;;;19.33;40.65;103209.03;5034288;28;20045;-57
2024/01/29 08:12:40;;;;;;;10.05;8.55;;;;;;;19.33;40.86;103209.88;5033153;28;20049;-57
2024/01/29 08:15:08;;;;;;;11.60;8.93;;;;;;;19.33;40.73;103211.72;4997534;28;20500;-55
2024/01/29 08:17:36;;;;;;;11.38;8.85;;;;;;;19.31;40.86;103214.44;5022868;28;20037;-60
2024/01/29 08:20:04;;;;;;;13.23;9.23;;;;;;;19.34;40.80;103210.75;5033417;28;20057;-59
2024/01/29 08:22:32;;;;;;;10.80;8.45;;;;;;;19.34;40.92;103213.44;5033246;28;20427;-60
2024/01/29 08:25:00;;;;;;;11.68;8.45;;;;;;;19.33;40.78;103217.09;5033421;28;20040;-59
2024/01/29 08:27:29;;;;;;;11.07;8.48;;;;;;;19.35;41.01;103215.19;5033432;28;20404;-59
2024/01/29 08:29:57;;;;;;;10.60;8.80;;;;;;;19.33;41.05;103207.19;5033325;28;20143;-60
2024/01/29 08:32:24;;;;;;;11.70;9.18;;;;;;;19.34;41.06;103213.44;5032718;28;20052;-60
2024/01/29 08:34:51;;;;;;;10.38;8.50;;;;;;;19.34;40.94;103210.75;5033094;28;20045;-60
2024/01/29 08:37:19;;;;;;;10.00;8.48;;;;;;;19.34;41.07;103216.13;5033137;28;20057;-59
2024/01/29 08:39:46;;;;;;;11.05;8.52;;;;;;;19.33;41.01;103206.34;5032151;28;20053;-60
2024/01/29 08:42:15;;;;;;;11.85;9.07;;;;;;;19.32;40.96;103213.50;5032838;28;20542;-60
2024/01/29 08:44:42;;;;;;;10.23;8.52;;;;;;;19.33;40.98;103200.97;5033069;28;20101;-60
2024/01/29 08:47:09;;;;;;;10.05;8.35;;;;;;;19.32;40.79;103212.63;5032963;28;20064;-58
2024/01/29 08:49:36;;;;;;;13.18;9.23;;;;;;;19.33;41.02;103212.56;5032842;28;20049;-55
2024/01/29 08:52:04;;;;;;;10.73;8.57;;;;;;;19.33;41.00;103219.75;5032656;28;20105;-57
2024/01/29 08:54:32;;;;;;;12.23;8.50;;;;;;;19.32;40.79;103218.00;5032431;28;20500;-57
2024/01/29 08:56:59;;;;;;;10.85;8.90;;;;;;;19.31;40.81;103218.97;5032782;28;20056;-55
2024/01/29 08:59:30;;;;;;;10.65;8.70;;;;;;;19.32;40.87;103223.38;5032792;28;20053;-59
2024/01/29 09:01:57;;;;;;;10.07;8.45;;;;;;;19.31;40.80;103227.00;5032595;28;20056;-60
2024/01/29 09:04:26;;;;;;;9.75;8.50;;;;;;;19.31;40.86;103227.00;5032892;28;20045;-60
2024/01/29 09:06:54;;;;;;;10.35;8.38;;;;;;;19.32;40.82;103226.06;5032680;28;20033;-60
2024/01/29 09:09:21;;;;;;;11.07;9.55;;;;;;;19.31;40.78;103224.31;5032557;28;20042;-59
2024/01/29 09:11:48;;;;;;;11.05;9.43;;;;;;;19.30;40.59;103230.66;5032423;28;20060;-60
2024/01/29 09:14:16;;;;;;;10.60;8.80;;;;;;;19.27;40.66;103227.16;5032791;28;20506;-60
2024/01/29 09:16:43;;;;;;;13.25;10.30;;;;;;;19.26;40.19;103243.34;5032403;28;20046;-59
2024/01/29 09:19:12;;;;;;;14.90;10.80;;;;;;;19.24;39.80;103240.75;5018039;28;20041;-57
2024/01/29 09:21:41;;;;;;;16.15;13.32;;;;;;;19.21;39.07;103237.34;5030435;28;20052;-57
2024/01/29 09:24:08;;;;;;;20.02;16.08;;;;;;;19.17;38.25;103243.78;5033037;28;20048;-57
2024/01/29 09:26:35;;;;;;;22.30;17.92;;;;;;;19.13;37.57;103237.69;5032619;28;20482;-57
2024/01/29 09:29:03;;;;;;;21.58;17.90;;;;;;;19.08;37.27;103239.72;5032569;28;20053;-57
2024/01/29 09:31:31;;;;;;;25.00;19.40;;;;;;;19.03;36.98;103239.06;5031707;28;20060;-57
2024/01/29 09:33:58;;;;;;;23.52;18.83;;;;;;;18.98;36.64;103241.09;5032272;28;20492;-57
2024/01/29 09:36:26;;;;;;;23.13;19.67;;;;;;;18.94;36.50;103245.72;5032561;28;20049;-56
2024/01/29 09:38:55;;;;;;;22.17;18.50;;;;;;;18.91;36.40;103239.63;5032134;28;20053;-57
2024/01/29 09:41:23;;;;;;;21.77;18.40;;;;;;;18.88;36.21;103247.81;5031925;28;20060;-56
2024/01/29 09:43:54;;;;;;;24.05;19.50;;;;;;;18.86;36.21;103247.03;5032061;28;20049;-56
2024/01/29 09:46:22;;;;;;;27.30;21.75;;;;;;;18.81;35.96;103247.22;5032344;28;20049;-57
2024/01/29 09:48:49;;;;;;;24.38;19.83;;;;;;;18.79;36.00;103246.41;5032265;28;20057;-57
2024/01/29 09:51:19;;;;;;;21.05;18.20;;;;;;;18.81;36.48;103244.53;5031996;28;20079;-56
2024/01/29 09:53:49;;;;;;;19.20;16.05;;;;;;;18.84;37.16;103243.50;5032089;28;20049;-57
2024/01/29 09:56:16;;;;;;;17.67;14.23;;;;;;;18.88;37.59;103258.53;5032446;28;20046;-57
2024/01/29 09:58:43;;;;;;;17.60;14.23;;;;;;;18.92;37.93;103254.78;5032238;28;20049;-57
2024/01/29 10:01:15;;;;;;;16.75;13.68;;;;;;;18.94;38.19;103247.53;5031812;28;20053;-58
2024/01/29 10:03:43;;;;;;;20.00;14.70;;;;;;;18.96;38.33;103253.72;5032592;28;20389;-58
2024/01/29 10:06:11;;;;;;;18.98;13.85;;;;;;;18.98;38.41;103254.50;5031832;28;20140;-57
2024/01/29 10:08:39;;;;;;;16.35;13.30;;;;;;;18.98;38.46;103255.38;5029211;28;20053;-58
2024/01/29 10:11:07;;;;;;;16.02;12.95;;;;;;;18.98;38.56;103252.69;5032460;28;20046;-58
2024/01/29 10:13:35;;;;;;;16.60;12.85;;;;;;;19.00;38.62;103249.97;5032401;28;20408;-58
2024/01/29 10:16:02;;;;;;;14.50;11.90;;;;;;;19.02;38.51;103237.31;5032064;28;20053;-58
2024/01/29 10:18:30;;;;;;;14.90;12.73;;;;;;;19.01;38.61;103241.81;5032103;28;20049;-59
2024/01/29 10:21:01;;;;;;;15.48;12.65;;;;;;;19.02;38.57;103248.06;5033792;28;20404;-60
2024/01/29 10:23:30;;;;;;;16.58;13.50;;;;;;;19.03;38.66;103245.28;5035853;28;20060;-60
2024/01/29 10:26:00;;;;;;;14.82;12.55;;;;;;;19.03;38.70;103249.78;5021965;28;20401;-60
2024/01/29 10:28:27;;;;;;;16.73;12.55;;;;;;;19.02;38.60;103246.25;5032916;28;20049;-60
2024/01/29 10:30:55;;;;;;;14.88;12.38;;;;;;;19.02;38.77;103240.88;5035716;28;20069;-59
2024/01/29 10:33:25;;;;;;;15.55;12.23;;;;;;;19.03;38.77;103247.97;5035577;28;20054;-59
2024/01/29 10:35:57;;;;;;;12.40;10.98;;;;;;;19.05;38.67;103253.28;5035511;28;20372;-59
2024/01/29 10:38:26;;;;;;;15.07;11.63;;;;;;;19.05;38.69;103247.06;5035169;28;20046;-58
2024/01/29 10:40:58;;;;;;;14.40;10.57;;;;;;;19.05;38.75;103241.69;5035413;28;20045;-58
2024/01/29 10:43:35;;;;;;;15.32;11.43;;;;;;;19.08;38.76;103244.19;5033564;28;20041;-59
2024/01/29 10:46:07;;;;;;;14.85;11.98;;;;;;;19.06;38.89;103246.09;5032086;28;20152;-58
2024/01/29 10:48:36;;;;;;;14.98;11.32;;;;;;;19.07;38.81;103243.34;5030910;28;20045;-60
2024/01/29 10:51:06;;;;;;;14.18;10.85;;;;;;;19.08;38.89;103246.88;5035485;28;20049;-60
2024/01/29 10:53:35;;;;;;;12.60;11.00;;;;;;;19.07;38.73;103246.03;5034885;28;20049;-60
2024/01/29 10:56:04;;;;;;;12.57;10.88;;;;;;;19.07;38.90;103240.66;5034717;28;20392;-60
2024/01/29 10:58:32;;;;;;;13.77;11.43;;;;;;;19.07;39.13;103246.03;5035126;28;20073;-59
2024/01/29 11:01:00;;;;;;;14.70;10.45;;;;;;;19.08;38.99;103237.03;5034984;28;20423;-59
2024/01/29 11:03:29;;;;;;;14.45;10.80;;;;;;;19.09;38.98;103235.22;5035170;28;20049;-59
2024/01/29 11:06:13;;;;;;;12.68;10.23;;;;;;;19.08;38.93;103237.03;5034435;28;20054;-59
2024/01/29 11:08:45;;;;;;;16.52;11.75;;;;;;;19.09;39.08;103237.91;5035007;28;20052;-58
2024/01/29 11:11:13;;;;;;;12.43;10.52;;;;;;;19.09;39.10;103230.72;5035171;28;20050;-58
2024/01/29 11:13:41;;;;;;;13.75;10.85;;;;;;;19.09;38.97;103227.16;5034551;28;20103;-58
2024/01/29 11:16:09;;;;;;;12.85;10.98;;;;;;;19.10;38.97;103220.84;5034839;28;20049;-59